Time;durP1;ratioP1;P1;durP2;ratioP2;P2;SDS_P1;SDS_P2;PMS_P1;PMS_P2;Temp;Humidity;BMP_temperature;BMP_pressure;BME280_temperature;BME280_humidity;BME280_pressure;Samples;Min_cycle;Max_cycle;Signal;HPM_P1;HPM_P2
2022/05/31 00:01:35;;;;;;;3.83;2.42;;;;;;;23.51;55.13;100820.91;5096099;28;20048;-76
2022/05/31 00:28:14;;;;;;;4.82;2.05;;;;;;;23.50;55.05;100835.44;5102269;28;20382;-76
2022/05/31 00:30:41;;;;;;;4.03;2.60;;;;;;;23.50;55.21;100821.94;5095543;28;20048;-76
2022/05/31 00:33:10;;;;;;;3.75;2.28;;;;;;;23.50;55.31;100827.34;5093777;28;20059;-76
2022/05/31 00:35:41;;;;;;;3.05;2.28;;;;;;;23.50;55.22;100830.03;5095269;28;20036;-75
2022/05/31 00:38:09;;;;;;;3.50;2.03;;;;;;;23.49;55.24;100828.31;5095126;28;20052;-76
2022/05/31 00:40:37;;;;;;;2.80;1.80;;;;;;;23.50;55.31;100823.75;5094937;28;20055;-76
2022/05/31 00:43:25;;;;;;;3.72;2.05;;;;;;;23.50;55.37;100827.34;5092720;28;20056;-76
2022/05/31 00:45:59;;;;;;;3.92;2.42;;;;;;;23.50;55.11;100823.75;5094949;28;20040;-75
2022/05/31 00:48:35;;;;;;;3.55;1.67;;;;;;;23.50;54.96;100826.47;5095020;28;20044;-76
2022/05/31 00:51:16;;;;;;;2.83;2.25;;;;;;;23.51;55.39;100830.88;5093029;28;20048;-75
2022/05/31 00:53:51;;;;;;;3.53;2.17;;;;;;;23.49;55.28;100839.13;5094461;28;20123;-76
2022/05/31 00:56:22;;;;;;;3.78;1.98;;;;;;;23.50;55.29;100843.53;5094841;28;20044;-76
2022/05/31 00:59:08;;;;;;;2.97;2.20;;;;;;;23.50;55.04;100843.53;5095341;28;20051;-76
2022/05/31 01:01:39;;;;;;;4.15;2.25;;;;;;;23.51;55.12;100852.50;5093225;28;20071;-76
2022/05/31 01:04:07;;;;;;;3.03;1.98;;;;;;;23.50;55.08;100857.06;5094702;28;20460;-76
2022/05/31 01:06:36;;;;;;;2.50;2.00;;;;;;;23.50;55.12;100862.47;5093258;28;20051;-76
2022/05/31 01:09:04;;;;;;;4.97;2.03;;;;;;;23.50;55.23;100856.19;5094276;28;20040;-76
2022/05/31 01:11:38;;;;;;;4.60;2.28;;;;;;;23.50;55.23;100862.47;5094368;28;20052;-76
2022/05/31 01:14:30;;;;;;;3.42;2.08;;;;;;;23.51;55.33;100858.75;5094477;28;20063;-76
2022/05/31 01:17:21;;;;;;;2.60;2.25;;;;;;;23.51;55.04;100860.59;5101399;28;20387;-76
2022/05/31 01:20:27;;;;;;;2.78;1.83;;;;;;;23.50;55.21;100856.19;5094311;28;20055;-76
2022/05/31 01:23:07;;;;;;;3.17;2.20;;;;;;;23.50;55.02;100862.47;5092377;28;20051;-76
2022/05/31 01:26:26;;;;;;;4.10;2.10;;;;;;;23.50;55.28;100867.88;5092606;28;20044;-76
2022/05/31 01:29:16;;;;;;;3.78;2.22;;;;;;;23.50;55.38;100853.47;5084584;28;20051;-76
2022/05/31 01:31:56;;;;;;;4.35;2.03;;;;;;;23.50;55.45;100858.88;5093999;28;20044;-76
2022/05/31 01:34:54;;;;;;;2.70;1.90;;;;;;;23.50;55.39;100856.19;5094056;28;20044;-76
2022/05/31 01:37:28;;;;;;;3.85;2.55;;;;;;;23.51;55.28;100855.19;5091046;28;20055;-76
2022/05/31 01:40:03;;;;;;;2.78;2.15;;;;;;;23.50;55.52;100853.47;5092279;28;20070;-76
2022/05/31 01:42:40;;;;;;;3.50;2.25;;;;;;;23.50;55.51;100848.94;5092074;28;20067;-76
2022/05/31 01:45:12;;;;;;;3.88;2.08;;;;;;;23.49;55.61;100852.63;5093849;28;20047;-76
2022/05/31 01:47:41;;;;;;;4.47;2.53;;;;;;;23.50;55.58;100853.47;5093870;28;20047;-76
2022/05/31 01:50:14;;;;;;;3.13;2.10;;;;;;;23.50;55.68;100859.75;5094067;28;20349;-76
2022/05/31 01:52:43;;;;;;;3.15;1.92;;;;;;;23.50;55.21;100857.06;5092602;28;20059;-76
2022/05/31 01:55:12;;;;;;;4.18;2.38;;;;;;;23.50;55.60;100854.34;5091725;28;20491;-76
2022/05/31 01:57:42;;;;;;;3.67;2.47;;;;;;;23.50;55.46;100859.75;5092109;28;20052;-75
2022/05/31 02:00:12;;;;;;;2.63;2.15;;;;;;;23.50;55.40;100856.19;5092037;28;20507;-76
2022/05/31 02:02:47;;;;;;;2.85;1.95;;;;;;;23.51;55.41;100863.31;5092584;28;20496;-76
2022/05/31 02:05:15;;;;;;;3.10;2.30;;;;;;;23.50;55.48;100865.16;5092584;28;20396;-76
2022/05/31 02:07:52;;;;;;;4.03;2.33;;;;;;;23.49;55.22;100868.84;5092050;28;20052;-76
2022/05/31 02:10:19;;;;;;;4.57;2.33;;;;;;;23.51;55.50;100860.59;5091871;28;20052;-76
2022/05/31 02:12:48;;;;;;;3.15;2.05;;;;;;;23.50;55.50;100858.88;5092200;28;20058;-76
2022/05/31 02:15:19;;;;;;;2.60;1.80;;;;;;;23.51;55.42;100861.44;5093792;28;20048;-76
2022/05/31 02:19:15;;;;;;;;;;;;;;;23.50;55.43;100867.00;5093765;28;20048;-75
2022/05/31 02:21:35;;;;;;;3.65;2.67;;;;;;;23.50;55.70;100859.75;5094650;28;19919;-74
2022/05/31 02:24:22;;;;;;;3.28;2.30;;;;;;;23.49;55.43;100863.44;5095914;28;20044;-73
2022/05/31 02:26:51;;;;;;;2.55;2.00;;;;;;;23.50;55.45;100869.69;5096238;28;20040;-77
2022/05/31 02:29:24;;;;;;;4.72;2.42;;;;;;;23.50;55.55;100867.88;5096166;28;20479;-75
2022/05/31 02:31:53;;;;;;;3.45;2.97;;;;;;;23.50;55.32;100862.47;5098373;28;20480;-76
2022/05/31 02:34:24;;;;;;;3.90;2.20;;;;;;;23.49;55.58;100863.44;5096489;28;20048;-77
2022/05/31 02:36:53;;;;;;;3.13;2.35;;;;;;;23.49;55.44;100866.16;5098052;28;20418;-76
2022/05/31 02:39:20;;;;;;;4.75;2.58;;;;;;;23.49;55.45;100866.16;5100310;28;20471;-76
2022/05/31 02:41:50;;;;;;;5.75;2.45;;;;;;;23.50;55.78;100878.66;5081507;28;20048;-76
2022/05/31 02:44:20;;;;;;;2.72;1.90;;;;;;;23.50;55.87;100877.78;5096159;28;20411;-76
2022/05/31 02:46:47;;;;;;;4.05;2.50;;;;;;;23.51;55.98;100868.72;5095797;28;20055;-76
2022/05/31 02:49:15;;;;;;;3.88;1.98;;;;;;;23.50;55.68;100872.38;5095622;28;20505;-77
2022/05/31 02:51:45;;;;;;;3.72;2.53;;;;;;;23.50;56.05;100875.97;5095755;28;20514;-77
2022/05/31 02:54:15;;;;;;;5.03;2.30;;;;;;;23.50;55.83;100878.66;5095484;28;20052;-76
2022/05/31 02:57:03;;;;;;;4.28;2.10;;;;;;;23.50;56.02;100880.50;5096802;28;20040;-76
2022/05/31 02:59:50;;;;;;;3.50;2.40;;;;;;;23.50;55.80;100870.56;5104202;28;20063;-76
2022/05/31 03:02:40;;;;;;;6.20;2.75;;;;;;;23.50;56.02;100867.88;5097071;28;20063;-77
2022/05/31 03:05:31;;;;;;;5.10;2.80;;;;;;;23.50;56.28;100884.06;5104002;28;20495;-79
2022/05/31 03:08:11;;;;;;;5.22;2.95;;;;;;;23.50;55.92;100886.78;5103949;28;20048;-77
2022/05/31 03:11:07;;;;;;;5.50;3.25;;;;;;;23.51;55.92;100885.75;5095390;28;20059;-77
2022/05/31 03:13:38;;;;;;;3.90;2.95;;;;;;;23.50;56.03;100889.47;5095346;28;20044;-77
2022/05/31 03:16:05;;;;;;;4.63;3.10;;;;;;;23.50;55.90;100888.59;5095393;28;20048;-77
2022/05/31 03:18:39;;;;;;;4.28;2.70;;;;;;;23.50;56.23;100883.19;5096630;28;20036;-77
2022/05/31 03:21:21;;;;;;;4.85;2.90;;;;;;;23.50;56.05;100881.38;5094735;28;20059;-76
2022/05/31 03:23:54;;;;;;;5.22;2.83;;;;;;;23.50;55.98;100888.59;5096474;28;20406;-77
2022/05/31 03:26:24;;;;;;;3.78;3.03;;;;;;;23.49;56.13;100895.88;5096395;28;20066;-77
2022/05/31 03:28:52;;;;;;;4.30;3.05;;;;;;;23.50;55.90;100900.28;5094842;28;20048;-77
2022/05/31 03:31:19;;;;;;;5.72;3.50;;;;;;;23.48;55.79;100888.78;5096391;28;20044;-78
2022/05/31 03:33:48;;;;;;;4.70;2.60;;;;;;;23.48;56.02;100888.78;5094990;28;20055;-77
2022/05/31 03:36:15;;;;;;;5.20;3.47;;;;;;;23.48;56.22;100894.19;5094752;28;20059;-77
2022/05/31 03:38:48;;;;;;;3.45;2.63;;;;;;;23.48;56.25;100894.19;5094660;28;20048;-77
2022/05/31 03:41:16;;;;;;;4.13;3.08;;;;;;;23.48;56.14;100887.94;5094708;28;20376;-77
2022/05/31 03:43:49;;;;;;;3.80;3.15;;;;;;;23.49;55.80;100901.28;5078828;28;20052;-77
2022/05/31 03:46:23;;;;;;;6.15;3.53;;;;;;;23.48;56.05;100905.00;5103290;28;20048;-77
2022/05/31 03:48:59;;;;;;;5.43;3.33;;;;;;;23.48;55.96;100902.28;5102663;28;20052;-77
2022/05/31 03:51:36;;;;;;;7.50;4.05;;;;;;;23.49;56.05;100900.44;5094197;28;20044;-78
2022/05/31 03:54:15;;;;;;;3.88;3.30;;;;;;;23.47;56.06;100906.00;5094474;28;20052;-77
2022/05/31 03:57:17;;;;;;;8.07;3.42;;;;;;;23.48;56.05;100912.25;5054032;28;20148;-77
2022/05/31 04:00:14;;;;;;;5.07;3.17;;;;;;;23.47;55.96;100919.50;5036974;28;20496;-77
2022/05/31 04:02:47;;;;;;;4.95;3.20;;;;;;;23.48;56.15;100921.19;5053148;28;20079;-78
2022/05/31 04:05:16;;;;;;;5.78;3.13;;;;;;;23.48;56.08;100917.66;5036753;28;20139;-77
2022/05/31 04:07:44;;;;;;;8.23;3.85;;;;;;;23.47;55.94;100915.97;5053442;28;20528;-77
2022/05/31 04:10:12;;;;;;;4.65;3.47;;;;;;;23.47;56.05;100911.41;5052413;28;20068;-77
2022/05/31 04:12:40;;;;;;;4.63;3.38;;;;;;;23.48;56.06;100920.34;5036224;28;20056;-78
2022/05/31 04:15:28;;;;;;;4.82;3.15;;;;;;;23.47;56.26;100914.09;5053257;28;20076;-78
2022/05/31 04:17:56;;;;;;;5.57;3.15;;;;;;;23.48;56.16;100923.06;5036189;28;20056;-78
2022/05/31 04:20:23;;;;;;;4.53;3.40;;;;;;;23.47;55.96;100916.81;5036380;28;20182;-78
2022/05/31 04:22:50;;;;;;;4.40;3.28;;;;;;;23.48;56.35;100929.31;5035972;28;20056;-77
2022/05/31 04:25:38;;;;;;;3.97;3.10;;;;;;;23.47;55.93;100927.63;5053168;28;20067;-77
2022/05/31 04:28:31;;;;;;;7.35;3.92;;;;;;;23.48;55.97;100918.50;5052694;28;20060;-77
2022/05/31 04:31:24;;;;;;;4.63;3.55;;;;;;;23.47;56.17;100916.81;5032798;28;20053;-77
2022/05/31 04:34:14;;;;;;;5.25;3.50;;;;;;;23.47;56.03;100915.97;5060484;28;20218;-77
2022/05/31 04:36:42;;;;;;;5.20;3.90;;;;;;;23.47;56.18;100916.81;5039384;28;20151;-77
2022/05/31 04:39:10;;;;;;;5.38;3.50;;;;;;;23.48;56.06;100920.34;5072238;28;20060;-77
2022/05/31 04:41:41;;;;;;;6.50;3.30;;;;;;;23.47;56.39;100922.22;5071884;28;20052;-77
2022/05/31 04:44:15;;;;;;;;;;;;;;;23.48;56.06;100917.66;5072263;28;20052;-77
2022/05/31 04:46:43;;;;;;;4.38;3.22;;;;;;;23.47;56.22;100927.63;5055471;28;19927;-77
2022/05/31 04:49:24;;;;;;;5.45;3.80;;;;;;;23.47;56.07;100922.22;5055967;28;20063;-77
2022/05/31 04:51:51;;;;;;;5.97;3.50;;;;;;;23.46;56.15;100920.53;5072258;28;20049;-77
2022/05/31 04:54:24;;;;;;;6.28;3.75;;;;;;;23.47;56.18;100924.06;5055655;28;20052;-77
2022/05/31 04:57:10;;;;;;;4.13;3.10;;;;;;;23.47;56.14;100922.22;5069678;28;20049;-77
2022/05/31 04:59:37;;;;;;;4.25;3.25;;;;;;;23.47;56.14;100916.81;5055059;28;20053;-77
2022/05/31 05:02:05;;;;;;;4.50;3.30;;;;;;;23.47;56.23;100918.66;5071508;28;20053;-77
2022/05/31 05:04:43;;;;;;;8.45;4.25;;;;;;;23.47;56.36;100924.06;5071807;28;20056;-77
2022/05/31 05:07:21;;;;;;;4.68;3.38;;;;;;;23.47;56.39;100922.22;5071771;28;20056;-77
2022/05/31 05:09:49;;;;;;;5.35;3.40;;;;;;;23.47;56.32;100922.22;5091911;28;20056;-77
2022/05/31 05:12:36;;;;;;;4.88;3.38;;;;;;;23.47;56.29;100913.25;5094109;28;20044;-77
2022/05/31 05:15:22;;;;;;;4.25;3.13;;;;;;;23.47;56.21;100921.38;5100261;28;20387;-77
2022/05/31 05:17:49;;;;;;;5.70;3.28;;;;;;;23.47;56.54;100921.38;5092746;28;20055;-77
2022/05/31 05:20:17;;;;;;;5.30;3.58;;;;;;;23.46;56.21;100925.94;5092485;28;20052;-77
2022/05/31 05:22:48;;;;;;;3.63;3.03;;;;;;;23.47;56.18;100929.47;5092500;28;20052;-76
2022/05/31 05:25:16;;;;;;;5.05;3.35;;;;;;;23.47;56.61;100934.88;5092960;28;20048;-76
2022/05/31 05:27:55;;;;;;;6.07;3.70;;;;;;;23.47;56.51;100946.53;5092634;28;20055;-76
2022/05/31 05:30:43;;;;;;;3.80;3.10;;;;;;;23.47;56.47;100933.03;5093732;28;20059;-76
2022/05/31 05:33:19;;;;;;;4.22;3.00;;;;;;;23.47;56.31;100935.72;5100764;28;20052;-76
2022/05/31 05:36:07;;;;;;;6.55;3.28;;;;;;;23.47;56.42;100938.44;5051559;28;20152;-76
2022/05/31 05:38:34;;;;;;;6.00;3.25;;;;;;;23.48;56.36;100942.81;5050781;28;20053;-77
2022/05/31 05:41:24;;;;;;;6.05;3.50;;;;;;;23.48;56.29;100950.06;4998290;28;20065;-76
2022/05/31 05:44:10;;;;;;;5.05;3.20;;;;;;;23.47;56.74;100957.34;5012034;28;20072;-76
2022/05/31 05:46:38;;;;;;;4.53;3.10;;;;;;;23.47;56.53;100954.63;5011742;28;20079;-76
2022/05/31 05:49:06;;;;;;;4.45;3.28;;;;;;;23.47;56.45;100945.69;4994779;28;20049;-77
2022/05/31 05:51:33;;;;;;;4.55;3.30;;;;;;;23.47;56.39;100951.94;4995286;28;20083;-77
2022/05/31 05:54:19;;;;;;;3.67;2.85;;;;;;;23.47;56.54;100962.75;5014050;28;20061;-76
2022/05/31 05:57:05;;;;;;;4.35;3.05;;;;;;;23.48;56.68;100960.88;5017721;28;20073;-76
2022/05/31 05:59:51;;;;;;;6.25;3.55;;;;;;;23.47;56.81;100965.44;5013111;28;20393;-77
2022/05/31 06:02:57;;;;;;;4.38;2.80;;;;;;;23.47;56.53;100970.00;5004938;28;20054;-77
2022/05/31 06:05:41;;;;;;;5.03;3.55;;;;;;;23.47;56.59;100970.84;4994865;28;20045;-76
2022/05/31 06:08:13;;;;;;;7.22;3.53;;;;;;;23.46;56.52;100974.56;4994905;28;20045;-76
2022/05/31 06:10:48;;;;;;;5.88;4.07;;;;;;;23.46;56.61;100971.88;4994919;28;20053;-76
2022/05/31 06:13:21;;;;;;;5.68;3.85;;;;;;;23.46;56.45;100977.25;5021197;28;20048;-76
2022/05/31 06:15:54;;;;;;;3.42;3.13;;;;;;;23.47;56.69;100984.34;5054495;28;20487;-77
2022/05/31 06:18:29;;;;;;;4.95;3.38;;;;;;;23.47;56.75;100988.91;5066489;28;20047;-77
2022/05/31 06:21:02;;;;;;;4.68;3.40;;;;;;;23.46;56.47;100979.97;5093440;28;20048;-76
2022/05/31 06:23:30;;;;;;;6.43;3.92;;;;;;;23.48;56.73;100988.75;5091691;28;20060;-76
2022/05/31 06:26:00;;;;;;;4.03;3.15;;;;;;;23.47;56.79;100984.34;5092027;28;20052;-76
2022/05/31 06:28:35;;;;;;;5.20;3.25;;;;;;;23.46;56.85;100985.38;5076014;28;20538;-77
2022/05/31 06:31:03;;;;;;;3.97;3.40;;;;;;;23.47;56.61;100986.22;5091779;28;20055;-76
2022/05/31 06:33:30;;;;;;;4.45;2.85;;;;;;;23.47;56.45;100983.50;5093819;28;20048;-76
2022/05/31 06:36:01;;;;;;;4.05;3.55;;;;;;;23.47;57.01;100986.22;5091971;28;20048;-76
2022/05/31 06:38:30;;;;;;;4.30;2.92;;;;;;;23.48;56.67;100982.50;5091824;28;20396;-77
2022/05/31 06:40:58;;;;;;;6.57;3.30;;;;;;;23.47;56.57;100988.91;5091481;28;20048;-76
2022/05/31 06:43:44;;;;;;;6.28;3.05;;;;;;;23.47;56.59;100989.75;5100224;28;20063;-76
2022/05/31 06:46:37;;;;;;;4.00;2.88;;;;;;;23.48;56.58;100982.50;5093433;28;20483;-76
2022/05/31 06:49:23;;;;;;;3.95;3.00;;;;;;;23.47;56.95;100992.47;5100263;28;20055;-76
2022/05/31 06:58:27;;;;;;;5.20;3.03;;;;;;;23.49;56.74;100992.28;5097663;28;20062;-76
2022/05/31 07:00:56;;;;;;;6.15;4.43;;;;;;;23.49;57.10;100990.44;5111966;28;20051;-75
2022/05/31 07:03:24;;;;;;;7.72;5.97;;;;;;;23.48;57.65;100991.47;5094994;28;20047;-75
2022/05/31 07:05:56;;;;;;;11.32;6.88;;;;;;;23.49;58.05;100981.50;5113714;28;20047;-74
2022/05/31 07:08:24;;;;;;;8.98;7.78;;;;;;;23.49;58.23;100985.03;5115641;28;20164;-75
2022/05/31 07:10:58;;;;;;;14.52;9.65;;;;;;;23.48;58.88;100980.66;5121995;28;20383;-76
2022/05/31 07:13:55;;;;;;;13.32;11.82;;;;;;;23.47;58.87;100981.66;5054616;28;20053;-78
2022/05/31 07:16:42;;;;;;;22.40;13.43;;;;;;;23.47;59.16;100978.09;5033703;28;20520;-77
2022/05/31 07:19:30;;;;;;;16.42;13.13;;;;;;;23.45;59.02;100983.66;5033644;28;20049;-79
2022/05/31 07:22:18;;;;;;;16.75;13.80;;;;;;;23.44;59.09;100980.09;5033761;28;20053;-76
2022/05/31 07:24:50;;;;;;;19.02;13.45;;;;;;;23.45;59.33;100975.53;5033779;28;20049;-77
2022/05/31 07:27:24;;;;;;;15.38;13.77;;;;;;;23.45;59.19;100975.53;5033239;28;20053;-77
2022/05/31 07:29:58;;;;;;;18.63;13.77;;;;;;;23.45;59.15;100972.84;5033639;28;20061;-76
2022/05/31 07:32:26;;;;;;;16.52;14.85;;;;;;;23.44;59.47;100971.16;5034187;28;20374;-76
2022/05/31 07:35:13;;;;;;;16.85;15.02;;;;;;;23.42;59.45;100971.31;5019775;28;20061;-76
2022/05/31 07:37:41;;;;;;;20.50;17.10;;;;;;;23.42;59.56;100981.28;5016318;28;20153;-78
2022/05/31 07:40:09;;;;;;;20.45;16.23;;;;;;;23.41;59.25;100987.66;5053130;28;20527;-76
2022/05/31 07:42:37;;;;;;;20.15;18.13;;;;;;;23.40;59.17;100975.16;5052992;28;20056;-76
2022/05/31 07:45:06;;;;;;;18.95;16.08;;;;;;;23.40;59.31;100980.56;5036580;28;20049;-82
2022/05/31 07:47:34;;;;;;;19.80;16.63;;;;;;;23.40;59.61;100983.28;5053504;28;20053;-78
2022/05/31 07:50:07;;;;;;;17.27;15.45;;;;;;;23.42;59.39;100986.69;5070131;28;20060;-75
2022/05/31 07:52:49;;;;;;;17.60;15.60;;;;;;;23.41;59.34;100993.91;5094062;28;20055;-77
2022/05/31 07:55:35;;;;;;;22.65;16.83;;;;;;;23.43;59.29;100991.91;5103567;28;20056;-76
2022/05/31 07:58:33;;;;;;;17.77;15.90;;;;;;;23.44;59.37;100993.63;5103500;28;20050;-76
2022/05/31 08:01:08;;;;;;;19.73;15.77;;;;;;;23.44;59.48;100987.38;5104098;28;20044;-77
2022/05/31 08:03:40;;;;;;;17.58;14.52;;;;;;;23.44;59.07;100990.06;5095255;28;20044;-77
2022/05/31 08:06:17;;;;;;;20.05;16.48;;;;;;;23.45;59.00;100994.47;5096094;28;20067;-78
2022/05/31 08:08:45;;;;;;;18.48;16.55;;;;;;;23.46;59.26;100996.19;5095498;28;20048;-74
2022/05/31 08:11:18;;;;;;;17.77;15.07;;;;;;;23.45;59.35;100992.59;5095848;28;20380;-77
2022/05/31 08:13:47;;;;;;;17.27;15.48;;;;;;;23.46;59.40;101004.28;5094591;28;20044;-78
2022/05/31 08:16:16;;;;;;;19.13;15.32;;;;;;;23.47;59.25;101007.84;5111289;28;20050;-77
2022/05/31 08:18:45;;;;;;;17.20;14.23;;;;;;;23.47;59.23;100997.88;5094935;28;20047;-75
2022/05/31 08:21:21;;;;;;;19.63;14.50;;;;;;;23.47;59.05;101005.97;5095145;28;20380;-75
2022/05/31 08:23:49;;;;;;;16.42;14.45;;;;;;;23.47;59.20;101005.13;5095291;28;20459;-77
2022/05/31 08:26:22;;;;;;;18.35;15.52;;;;;;;23.48;59.41;101004.13;5095767;28;20048;-76
2022/05/31 08:28:50;;;;;;;16.13;13.52;;;;;;;23.48;59.35;100996.00;5093614;28;20044;-74
2022/05/31 08:31:23;;;;;;;14.88;13.30;;;;;;;23.49;58.95;101003.94;5094042;28;20044;-74
2022/05/31 08:33:51;;;;;;;15.77;14.05;;;;;;;23.49;59.23;101001.25;5094007;28;20051;-79
2022/05/31 08:36:19;;;;;;;17.20;13.95;;;;;;;23.50;59.20;101004.78;5095147;28;20044;-74
2022/05/31 08:38:46;;;;;;;17.88;14.57;;;;;;;23.49;59.46;101001.25;5094567;28;20399;-81
2022/05/31 08:41:25;;;;;;;14.88;13.38;;;;;;;23.50;59.20;100999.41;5094707;28;20044;-74
2022/05/31 08:44:16;;;;;;;15.63;13.50;;;;;;;23.50;59.03;101008.38;5094896;28;20051;-76
2022/05/31 08:47:13;;;;;;;15.98;14.18;;;;;;;23.51;59.01;101004.66;5093148;28;20106;-73
2022/05/31 08:53:01;;;;;;;17.63;13.83;;;;;;;23.51;59.02;101006.53;5093141;28;20044;-76
2022/05/31 08:58:30;;;;;;;17.88;14.48;;;;;;;23.50;58.95;101008.38;5093300;28;20514;-78
2022/05/31 09:00:59;;;;;;;18.25;15.27;;;;;;;23.50;59.09;100997.56;5094038;28;20039;-77
2022/05/31 09:03:43;;;;;;;18.17;14.27;;;;;;;23.52;58.94;101002.81;5094191;28;20044;-76
2022/05/31 09:06:15;;;;;;;15.55;13.93;;;;;;;23.53;58.91;100999.09;5092497;28;20055;-76
2022/05/31 09:08:56;;;;;;;16.27;14.57;;;;;;;23.53;59.04;101001.78;5094044;28;20051;-76
2022/05/31 09:11:29;;;;;;;17.40;15.75;;;;;;;23.53;59.24;100999.94;5094202;28;20047;-75
2022/05/31 09:14:17;;;;;;;17.13;13.50;;;;;;;23.53;58.89;101005.34;5094151;28;20075;-76
2022/05/31 09:16:57;;;;;;;14.73;13.10;;;;;;;23.55;58.93;100999.81;5094132;28;20048;-76
2022/05/31 09:19:51;;;;;;;15.43;13.05;;;;;;;23.56;59.31;100996.09;5094504;28;20043;-76
2022/05/31 09:22:24;;;;;;;14.77;13.38;;;;;;;23.57;60.41;100993.22;5092601;28;20412;-76
2022/05/31 09:24:52;;;;;;;15.95;13.07;;;;;;;23.57;60.21;100992.38;5093920;28;20044;-76
2022/05/31 09:27:35;;;;;;;12.57;11.32;;;;;;;23.57;60.75;100982.41;5109424;28;20063;-76
2022/05/31 09:30:21;;;;;;;13.13;10.27;;;;;;;23.59;62.28;100985.81;5093977;28;20491;-76
2022/05/31 09:32:58;;;;;;;11.07;9.98;;;;;;;23.59;61.85;100980.41;5093908;28;20146;-77
2022/05/31 09:35:56;;;;;;;12.20;10.30;;;;;;;23.60;62.12;100974.00;5093815;28;20051;-76
2022/05/31 09:39:08;;;;;;;13.27;10.15;;;;;;;23.60;62.33;100976.69;5092552;28;20062;-75
2022/05/31 09:41:43;;;;;;;10.55;9.15;;;;;;;23.61;62.13;100982.94;5092643;28;20043;-76
2022/05/31 09:44:23;;;;;;;9.57;8.57;;;;;;;23.60;62.29;100984.81;5093769;28;20047;-76
2022/05/31 09:47:02;;;;;;;9.88;8.93;;;;;;;23.61;62.79;100986.50;5093759;28;20040;-78
2022/05/31 09:49:45;;;;;;;10.27;9.27;;;;;;;23.61;62.24;100983.78;5109453;28;20052;-77
2022/05/31 09:52:22;;;;;;;12.88;11.57;;;;;;;23.60;62.36;100976.69;5093979;28;20044;-76
2022/05/31 09:58:31;;;;;;;11.98;10.30;;;;;;;23.62;62.54;100985.50;5100672;28;20044;-76
2022/05/31 10:01:49;;;;;;;12.68;11.05;;;;;;;23.61;62.62;100983.78;5113800;28;20044;-77
2022/05/31 10:04:27;;;;;;;11.63;10.43;;;;;;;23.61;62.72;100983.78;5108955;28;20392;-76
2022/05/31 10:07:05;;;;;;;11.68;10.52;;;;;;;23.62;63.29;100980.09;5108249;28;20055;-76
2022/05/31 10:09:35;;;;;;;10.68;9.45;;;;;;;23.63;62.90;100983.66;5110558;28;20055;-76
2022/05/31 10:12:10;;;;;;;9.63;8.63;;;;;;;23.64;62.86;100988.03;5113161;28;20043;-78
2022/05/31 10:14:42;;;;;;;10.60;8.90;;;;;;;23.64;62.80;100979.94;5112258;28;20062;-76
2022/05/31 10:17:29;;;;;;;10.13;9.05;;;;;;;23.64;62.80;100983.47;5111569;28;20455;-77
2022/05/31 10:20:18;;;;;;;10.13;9.02;;;;;;;23.65;62.98;100984.31;5092005;28;20040;-76
2022/05/31 10:22:49;;;;;;;9.63;8.00;;;;;;;23.64;62.96;100980.78;5093020;28;20044;-77
2022/05/31 10:25:45;;;;;;;9.00;8.20;;;;;;;23.66;62.53;100980.69;5109110;28;20066;-80
2022/05/31 10:28:56;;;;;;;9.32;8.43;;;;;;;23.66;61.34;100978.81;5045674;28;20530;-79
2022/05/31 10:31:50;;;;;;;9.48;8.68;;;;;;;23.67;62.22;100975.09;5034663;28;20056;-75
2022/05/31 10:34:34;;;;;;;14.95;11.43;;;;;;;23.66;61.16;100968.00;5050799;28;20060;-78
2022/05/31 10:37:04;;;;;;;9.85;8.85;;;;;;;23.68;62.57;100968.69;5050596;28;20072;-76
2022/05/31 10:39:37;;;;;;;9.45;8.38;;;;;;;23.68;62.12;100970.53;5050593;28;20168;-76
2022/05/31 10:42:14;;;;;;;9.55;8.45;;;;;;;23.68;61.65;100970.53;5051464;28;20583;-75
2022/05/31 10:44:53;;;;;;;8.60;7.80;;;;;;;23.68;62.22;100965.13;5038522;28;20560;-74
2022/05/31 10:47:22;;;;;;;11.50;10.40;;;;;;;23.68;61.21;100968.69;5054509;28;20049;-75
2022/05/31 10:49:50;;;;;;;9.68;8.63;;;;;;;23.69;62.33;100962.25;5042078;28;20057;-75
2022/05/31 10:52:20;;;;;;;12.25;9.38;;;;;;;23.71;61.67;100966.69;5038609;28;20458;-74
2022/05/31 10:54:47;;;;;;;9.40;8.45;;;;;;;23.69;61.68;100956.84;5053893;28;20076;-74
2022/05/31 10:57:23;;;;;;;8.90;7.68;;;;;;;23.72;61.38;100952.16;5054049;28;20068;-74
2022/05/31 11:00:18;;;;;;;8.82;8.00;;;;;;;23.71;61.82;100954.03;5054073;28;20053;-75
2022/05/31 11:03:09;;;;;;;9.10;8.05;;;;;;;23.73;62.20;100951.16;5054057;28;20061;-76
2022/05/31 11:05:57;;;;;;;8.02;7.32;;;;;;;23.72;62.21;100957.56;5129181;27;20415;-75
2022/05/31 11:12:02;;;;;;;10.05;8.05;;;;;;;23.73;61.10;100943.03;5036590;28;20048;-74
2022/05/31 11:14:38;;;;;;;8.25;7.45;;;;;;;23.74;60.97;100944.72;5036574;28;20401;-74
2022/05/31 11:17:32;;;;;;;9.65;7.45;;;;;;;23.74;61.80;100945.59;5053688;28;20429;-76
2022/05/31 11:20:04;;;;;;;;;;;;;;;23.75;61.84;100941.03;5053733;28;20061;-74
2022/05/31 11:22:43;;;;;;;7.95;7.15;;;;;;;23.74;61.93;100948.31;5053608;28;20472;-76
2022/05/31 11:25:26;;;;;;;9.65;8.65;;;;;;;23.75;61.69;100946.44;5053448;28;20057;-78
2022/05/31 11:28:27;;;;;;;8.68;7.85;;;;;;;23.74;61.98;100942.91;5020497;28;20412;-75
2022/05/31 11:31:28;;;;;;;8.13;7.28;;;;;;;23.74;62.57;100944.72;5053446;28;20080;-79
2022/05/31 11:34:15;;;;;;;12.02;10.07;;;;;;;23.72;59.59;100936.78;5053171;28;20065;-75
2022/05/31 11:36:51;;;;;;;11.10;10.00;;;;;;;23.73;59.17;100932.22;5053518;28;20041;-75
2022/05/31 11:39:28;;;;;;;14.55;12.38;;;;;;;23.65;59.81;100931.16;5053494;28;20101;-75
2022/05/31 11:42:33;;;;;;;12.35;10.07;;;;;;;23.67;60.10;100931.84;5053878;28;20049;-75
2022/05/31 11:45:24;;;;;;;13.02;9.95;;;;;;;23.68;60.92;100930.84;5067037;28;20055;-75
2022/05/31 11:47:57;;;;;;;12.77;10.70;;;;;;;23.65;61.17;100925.75;5116995;28;20051;-75
2022/05/31 11:50:56;;;;;;;12.52;9.90;;;;;;;23.67;60.76;100920.19;5097239;28;20051;-78
2022/05/31 11:53:42;;;;;;;10.68;8.48;;;;;;;23.69;61.17;100920.88;5105765;28;20513;-75
2022/05/31 11:56:23;;;;;;;10.02;8.25;;;;;;;23.69;60.75;100916.31;5117720;28;20039;-75
2022/05/31 11:59:07;;;;;;;10.20;8.50;;;;;;;23.71;60.90;100918.88;5115711;28;20051;-75
2022/05/31 12:01:48;;;;;;;15.73;8.40;;;;;;;23.73;61.46;100916.00;5115432;28;20058;-77
2022/05/31 12:04:26;;;;;;;8.40;7.43;;;;;;;23.74;61.45;100901.47;5115647;28;20051;-76
2022/05/31 12:07:04;;;;;;;8.15;6.80;;;;;;;23.76;61.11;100907.59;5115715;28;20047;-75
2022/05/31 12:09:41;;;;;;;7.65;6.85;;;;;;;23.77;61.76;100911.97;5115886;28;20058;-75
2022/05/31 12:12:17;;;;;;;7.63;6.82;;;;;;;23.77;61.45;100906.56;5116033;28;20055;-77
2022/05/31 12:14:54;;;;;;;8.02;6.60;;;;;;;23.77;61.19;100909.28;5113515;28;20407;-78
2022/05/31 12:17:31;;;;;;;8.57;6.40;;;;;;;23.79;61.72;100909.97;5115261;28;20040;-80
2022/05/31 12:20:17;;;;;;;8.25;7.15;;;;;;;23.80;61.36;100906.25;5115482;28;20055;-76
2022/05/31 12:22:56;;;;;;;11.88;8.13;;;;;;;23.80;60.58;100912.50;5114060;28;20062;-76
2022/05/31 12:25:30;;;;;;;7.95;6.30;;;;;;;23.82;61.38;100906.94;5115267;28;20043;-74
2022/05/31 12:28:18;;;;;;;8.48;6.68;;;;;;;23.81;60.74;100908.78;5115043;28;20043;-77
2022/05/31 12:31:26;;;;;;;7.82;5.97;;;;;;;23.81;60.80;100902.53;5113945;28;20039;-75
2022/05/31 12:34:31;;;;;;;8.40;6.43;;;;;;;23.82;61.01;100894.28;5052114;28;20060;-77
2022/05/31 12:37:09;;;;;;;8.55;6.88;;;;;;;23.83;60.82;100905.94;4992751;28;20058;-77
2022/05/31 12:39:38;;;;;;;6.78;6.07;;;;;;;23.82;60.93;100899.69;4993016;28;20065;-76
2022/05/31 12:42:14;;;;;;;6.70;5.70;;;;;;;23.84;60.91;100896.81;4992626;28;20042;-76
2022/05/31 12:44:45;;;;;;;7.75;5.25;;;;;;;23.83;60.61;100887.88;4993038;28;20066;-78
2022/05/31 12:47:15;;;;;;;7.80;6.30;;;;;;;23.84;60.01;100894.13;4992875;28;20046;-77
2022/05/31 12:49:52;;;;;;;7.28;5.57;;;;;;;23.85;60.00;100891.25;4992902;28;20050;-77
2022/05/31 12:52:41;;;;;;;9.18;6.05;;;;;;;23.85;59.93;100891.25;4993060;28;20081;-76
2022/05/31 12:55:23;;;;;;;6.93;5.93;;;;;;;23.87;60.36;100883.84;4992876;28;20466;-75